sensor_id;sensor_type;location;lat;lon;timestamp;pressure;altitude;pressure_sealevel;temperature;humidity
9695;BME280;4690;52.422;13.486;2023-05-02T00:04:43;101005.19;;;15.83;50.80
9695;BME280;4690;52.422;13.486;2023-05-02T00:07:10;101003.44;;;15.77;50.26
9695;BME280;4690;52.422;13.486;2023-05-02T00:09:36;101004.19;;;15.73;50.19
9695;BME280;4690;52.422;13.486;2023-05-02T00:12:02;101006.13;;;15.72;49.69
9695;BME280;4690;52.422;13.486;2023-05-02T00:14:28;101004.09;;;15.67;50.04
9695;BME280;4690;52.422;13.486;2023-05-02T00:16:54;100993.31;;;15.66;50.96
9695;BME280;4690;52.422;13.486;2023-05-02T00:19:20;101003.53;;;15.65;50.96
9695;BME280;4690;52.422;13.486;2023-05-02T00:21:48;101002.66;;;15.65;51.22
9695;BME280;4690;52.422;13.486;2023-05-02T00:24:16;100996.56;;;15.63;50.44
9695;BME280;4690;52.422;13.486;2023-05-02T00:26:42;100998.16;;;15.59;49.59
9695;BME280;4690;52.422;13.486;2023-05-02T00:29:08;100994.06;;;15.61;50.75
9695;BME280;4690;52.422;13.486;2023-05-02T00:31:33;100996.00;;;15.61;50.75
9695;BME280;4690;52.422;13.486;2023-05-02T00:34:00;100998.16;;;15.59;49.35
9695;BME280;4690;52.422;13.486;2023-05-02T00:36:26;100990.91;;;15.53;48.43
9695;BME280;4690;52.422;13.486;2023-05-02T00:38:52;100995.19;;;15.43;45.54
9695;BME280;4690;52.422;13.486;2023-05-02T00:41:17;100989.66;;;15.43;45.05
9695;BME280;4690;52.422;13.486;2023-05-02T00:43:43;100989.91;;;15.42;44.94
9695;BME280;4690;52.422;13.486;2023-05-02T00:46:10;100991.31;;;15.44;44.18
9695;BME280;4690;52.422;13.486;2023-05-02T00:48:37;100988.84;;;15.43;43.91
9695;BME280;4690;52.422;13.486;2023-05-02T00:51:04;100985.16;;;15.37;44.91
9695;BME280;4690;52.422;13.486;2023-05-02T00:53:31;100989.31;;;15.40;45.13
9695;BME280;4690;52.422;13.486;2023-05-02T00:55:57;100997.69;;;15.45;44.06
9695;BME280;4690;52.422;13.486;2023-05-02T00:58:24;100996.09;;;15.49;44.20
9695;BME280;4690;52.422;13.486;2023-05-02T01:10:22;100994.81;;;15.57;43.46
9695;BME280;4690;52.422;13.486;2023-05-02T01:13:03;100996.50;;;15.58;42.74
9695;BME280;4690;52.422;13.486;2023-05-02T01:15:37;101002.34;;;15.61;43.49
9695;BME280;4690;52.422;13.486;2023-05-02T01:18:05;100991.28;;;15.61;43.25
9695;BME280;4690;52.422;13.486;2023-05-02T01:20:38;101000.16;;;15.63;43.44
9695;BME280;4690;52.422;13.486;2023-05-02T01:23:31;100996.19;;;15.54;43.11
9695;BME280;4690;52.422;13.486;2023-05-02T01:26:15;100994.16;;;15.50;43.26
9695;BME280;4690;52.422;13.486;2023-05-02T01:29:07;100998.66;;;15.56;43.72
9695;BME280;4690;52.422;13.486;2023-05-02T01:31:41;101004.19;;;15.56;43.23
9695;BME280;4690;52.422;13.486;2023-05-02T01:34:10;101001.50;;;15.61;43.55
9695;BME280;4690;52.422;13.486;2023-05-02T01:36:42;101007.22;;;15.54;43.50
9695;BME280;4690;52.422;13.486;2023-05-02T01:39:13;101010.22;;;15.53;44.32
9695;BME280;4690;52.422;13.486;2023-05-02T01:41:42;101008.06;;;15.55;44.84
9695;BME280;4690;52.422;13.486;2023-05-02T01:44:10;101014.72;;;15.59;45.08
9695;BME280;4690;52.422;13.486;2023-05-02T01:46:42;101010.38;;;15.63;45.54
9695;BME280;4690;52.422;13.486;2023-05-02T01:49:09;101013.72;;;15.65;45.11
9695;BME280;4690;52.422;13.486;2023-05-02T01:51:45;101018.91;;;15.61;45.31
9695;BME280;4690;52.422;13.486;2023-05-02T01:54:15;101012.56;;;15.61;44.94
9695;BME280;4690;52.422;13.486;2023-05-02T01:56:42;101020.78;;;15.56;45.24
9695;BME280;4690;52.422;13.486;2023-05-02T01:59:13;101021.69;;;15.61;45.67
9695;BME280;4690;52.422;13.486;2023-05-02T02:01:40;101019.50;;;15.63;45.70
9695;BME280;4690;52.422;13.486;2023-05-02T02:04:11;101022.59;;;15.67;45.86
9695;BME280;4690;52.422;13.486;2023-05-02T02:06:45;101019.63;;;15.68;46.14
9695;BME280;4690;52.422;13.486;2023-05-02T02:09:12;101027.63;;;15.70;46.61
9695;BME280;4690;52.422;13.486;2023-05-02T02:12:30;101025.88;;;15.64;46.37
9695;BME280;4690;52.422;13.486;2023-05-02T02:17:44;101024.75;;;15.65;46.49
9695;BME280;4690;52.422;13.486;2023-05-02T02:20:12;101024.19;;;15.63;46.86
9695;BME280;4690;52.422;13.486;2023-05-02T02:22:42;101023.63;;;15.61;47.08
9695;BME280;4690;52.422;13.486;2023-05-02T02:25:15;101034.66;;;15.61;47.35
9695;BME280;4690;52.422;13.486;2023-05-02T02:27:41;101039.34;;;15.60;47.48
9695;BME280;4690;52.422;13.486;2023-05-02T02:30:09;101051.75;;;15.58;47.34
9695;BME280;4690;52.422;13.486;2023-05-02T02:32:35;101053.31;;;15.54;47.88
9695;BME280;4690;52.422;13.486;2023-05-02T02:35:01;101055.53;;;15.52;47.80
9695;BME280;4690;52.422;13.486;2023-05-02T02:37:36;101059.88;;;15.47;48.00
9695;BME280;4690;52.422;13.486;2023-05-02T02:40:30;101060.88;;;15.41;47.99
9695;BME280;4690;52.422;13.486;2023-05-02T02:43:32;101076.34;;;15.42;47.99
9695;BME280;4690;52.422;13.486;2023-05-02T02:46:47;101072.66;;;15.37;48.47
9695;BME280;4690;52.422;13.486;2023-05-02T02:49:47;101074.88;;;15.35;48.91
9695;BME280;4690;52.422;13.486;2023-05-02T02:54:58;101082.38;;;15.22;48.64
9695;BME280;4690;52.422;13.486;2023-05-02T02:58:34;101085.97;;;15.23;49.03
9695;BME280;4690;52.422;13.486;2023-05-02T03:00:33;101089.22;;;15.20;48.83
9695;BME280;4690;52.422;13.486;2023-05-02T03:03:00;101088.38;;;15.19;48.80
9695;BME280;4690;52.422;13.486;2023-05-02T03:05:27;101096.00;;;15.12;48.98
9695;BME280;4690;52.422;13.486;2023-05-02T03:07:54;101089.38;;;15.13;49.08
9695;BME280;4690;52.422;13.486;2023-05-02T03:10:21;101100.94;;;15.10;48.42
9695;BME280;4690;52.422;13.486;2023-05-02T03:12:47;101109.94;;;15.06;49.01
9695;BME280;4690;52.422;13.486;2023-05-02T03:18:16;101121.88;;;14.94;49.21
9695;BME280;4690;52.422;13.486;2023-05-02T03:20:42;101136.03;;;14.98;49.23
9695;BME280;4690;52.422;13.486;2023-05-02T03:23:08;101143.38;;;14.92;49.21
9695;BME280;4690;52.422;13.486;2023-05-02T03:25:34;101141.69;;;14.91;49.04
9695;BME280;4690;52.422;13.486;2023-05-02T03:28:00;101152.28;;;14.83;49.07
9695;BME280;4690;52.422;13.486;2023-05-02T03:30:25;101143.41;;;14.80;49.16
9695;BME280;4690;52.422;13.486;2023-05-02T03:32:51;101149.28;;;14.84;49.32
9695;BME280;4690;52.422;13.486;2023-05-02T03:35:17;101146.66;;;14.77;49.80
9695;BME280;4690;52.422;13.486;2023-05-02T03:37:44;101156.41;;;14.68;50.21
9695;BME280;4690;52.422;13.486;2023-05-02T03:40:10;101159.41;;;14.67;50.24
9695;BME280;4690;52.422;13.486;2023-05-02T03:42:36;101157.03;;;14.59;50.38
9695;BME280;4690;52.422;13.486;2023-05-02T03:45:09;101159.81;;;14.59;50.51
9695;BME280;4690;52.422;13.486;2023-05-02T03:47:35;101162.56;;;14.59;50.92
9695;BME280;4690;52.422;13.486;2023-05-02T03:50:00;101173.59;;;14.59;51.35
9695;BME280;4690;52.422;13.486;2023-05-02T03:52:27;101169.13;;;14.57;51.63
9695;BME280;4690;52.422;13.486;2023-05-02T03:54:53;101169.63;;;14.54;51.50
9695;BME280;4690;52.422;13.486;2023-05-02T03:57:19;101167.97;;;14.53;51.58
9695;BME280;4690;52.422;13.486;2023-05-02T03:59:46;101171.78;;;14.52;51.58
9695;BME280;4690;52.422;13.486;2023-05-02T04:02:12;101187.94;;;14.49;51.63
9695;BME280;4690;52.422;13.486;2023-05-02T04:04:37;101189.38;;;14.51;52.03
9695;BME280;4690;52.422;13.486;2023-05-02T04:07:05;101196.84;;;14.51;52.32
9695;BME280;4690;52.422;13.486;2023-05-02T04:09:33;101199.81;;;14.49;52.61
9695;BME280;4690;52.422;13.486;2023-05-02T04:11:59;101199.59;;;14.51;52.78
9695;BME280;4690;52.422;13.486;2023-05-02T04:14:24;101199.97;;;14.54;52.92
9695;BME280;4690;52.422;13.486;2023-05-02T04:16:51;101209.56;;;14.52;52.88
9695;BME280;4690;52.422;13.486;2023-05-02T04:19:17;101215.06;;;14.52;53.40
9695;BME280;4690;52.422;13.486;2023-05-02T04:21:44;101206.56;;;14.53;53.56
9695;BME280;4690;52.422;13.486;2023-05-02T04:24:10;101222.03;;;14.54;53.63
9695;BME280;4690;52.422;13.486;2023-05-02T04:26:36;101214.84;;;14.53;53.79
9695;BME280;4690;52.422;13.486;2023-05-02T04:29:02;101221.81;;;14.56;53.93
9695;BME280;4690;52.422;13.486;2023-05-02T04:31:30;101229.22;;;14.55;54.08
9695;BME280;4690;52.422;13.486;2023-05-02T04:33:57;101231.13;;;14.55;54.39
9695;BME280;4690;52.422;13.486;2023-05-02T04:36:24;101232.84;;;14.56;54.63
9695;BME280;4690;52.422;13.486;2023-05-02T04:38:50;101244.22;;;14.60;54.44
9695;BME280;4690;52.422;13.486;2023-05-02T04:41:16;101235.94;;;14.60;54.58
9695;BME280;4690;52.422;13.486;2023-05-02T04:43:43;101240.97;;;14.63;54.14
9695;BME280;4690;52.422;13.486;2023-05-02T04:46:09;101257.66;;;14.68;54.70
9695;BME280;4690;52.422;13.486;2023-05-02T04:48:35;101249.22;;;14.74;54.92
9695;BME280;4690;52.422;13.486;2023-05-02T04:51:00;101250.94;;;14.75;54.97
9695;BME280;4690;52.422;13.486;2023-05-02T04:53:26;101260.50;;;14.85;54.96
9695;BME280;4690;52.422;13.486;2023-05-02T04:55:52;101256.66;;;14.86;54.53
9695;BME280;4690;52.422;13.486;2023-05-02T04:58:18;101263.13;;;14.91;54.00
9695;BME280;4690;52.422;13.486;2023-05-02T05:00:44;101264.66;;;14.99;53.73
9695;BME280;4690;52.422;13.486;2023-05-02T05:03:10;101264.28;;;15.07;54.00
9695;BME280;4690;52.422;13.486;2023-05-02T05:05:35;101272.09;;;15.10;53.42
9695;BME280;4690;52.422;13.486;2023-05-02T05:08:01;101284.41;;;15.19;53.64
9695;BME280;4690;52.422;13.486;2023-05-02T05:10:27;101291.22;;;15.29;53.39
9695;BME280;4690;52.422;13.486;2023-05-02T05:12:53;101295.41;;;15.31;52.71
9695;BME280;4690;52.422;13.486;2023-05-02T05:15:18;101290.84;;;15.37;53.13
9695;BME280;4690;52.422;13.486;2023-05-02T05:17:50;101296.00;;;15.33;53.13
9695;BME280;4690;52.422;13.486;2023-05-02T05:20:16;101296.84;;;15.34;52.74
9695;BME280;4690;52.422;13.486;2023-05-02T05:22:42;101301.03;;;15.36;51.81
9695;BME280;4690;52.422;13.486;2023-05-02T05:25:08;101303.09;;;15.41;51.93
9695;BME280;4690;52.422;13.486;2023-05-02T05:27:35;101304.63;;;15.49;52.62
9695;BME280;4690;52.422;13.486;2023-05-02T05:30:05;101316.84;;;15.53;52.49
9695;BME280;4690;52.422;13.486;2023-05-02T05:32:34;101318.63;;;15.59;52.15
9695;BME280;4690;52.422;13.486;2023-05-02T05:35:00;101318.38;;;15.60;51.81
9695;BME280;4690;52.422;13.486;2023-05-02T05:37:26;101330.97;;;15.68;51.61
9695;BME280;4690;52.422;13.486;2023-05-02T05:39:52;101326.53;;;15.67;51.51
9695;BME280;4690;52.422;13.486;2023-05-02T05:42:18;101330.97;;;15.68;51.78
9695;BME280;4690;52.422;13.486;2023-05-02T05:44:43;101338.22;;;15.69;51.40
9695;BME280;4690;52.422;13.486;2023-05-02T05:47:09;101338.16;;;15.81;51.31
9695;BME280;4690;52.422;13.486;2023-05-02T05:49:35;101342.28;;;15.95;51.73
9695;BME280;4690;52.422;13.486;2023-05-02T05:52:01;101347.16;;;16.05;51.77
9695;BME280;4690;52.422;13.486;2023-05-02T05:54:27;101349.28;;;16.14;51.59
9695;BME280;4690;52.422;13.486;2023-05-02T05:56:53;101351.78;;;16.16;51.64
9695;BME280;4690;52.422;13.486;2023-05-02T05:59:19;101354.97;;;16.08;51.14
9695;BME280;4690;52.422;13.486;2023-05-02T06:01:45;101355.94;;;16.02;51.36
9695;BME280;4690;52.422;13.486;2023-05-02T06:04:10;101353.56;;;15.94;51.56
9695;BME280;4690;52.422;13.486;2023-05-02T06:06:36;101364.22;;;16.02;52.05
9695;BME280;4690;52.422;13.486;2023-05-02T06:09:02;101371.50;;;16.20;52.26
9695;BME280;4690;52.422;13.486;2023-05-02T06:11:29;101370.69;;;16.36;51.73
9695;BME280;4690;52.422;13.486;2023-05-02T06:13:54;101374.94;;;16.44;51.26
9695;BME280;4690;52.422;13.486;2023-05-02T06:16:20;101388.13;;;16.53;50.74
9695;BME280;4690;52.422;13.486;2023-05-02T06:18:46;101382.91;;;16.57;50.69
9695;BME280;4690;52.422;13.486;2023-05-02T06:21:14;101385.44;;;16.75;51.12
9695;BME280;4690;52.422;13.486;2023-05-02T06:23:40;101402.91;;;16.93;49.95
9695;BME280;4690;52.422;13.486;2023-05-02T06:26:06;101396.03;;;16.95;50.11
9695;BME280;4690;52.422;13.486;2023-05-02T06:28:32;101404.06;;;16.97;49.89
9695;BME280;4690;52.422;13.486;2023-05-02T06:31:03;101400.47;;;16.96;50.47
9695;BME280;4690;52.422;13.486;2023-05-02T06:33:31;101401.19;;;17.09;50.99
9695;BME280;4690;52.422;13.486;2023-05-02T06:35:58;101411.16;;;17.27;50.21
9695;BME280;4690;52.422;13.486;2023-05-02T06:38:24;101415.31;;;17.46;50.21
9695;BME280;4690;52.422;13.486;2023-05-02T06:40:50;101419.75;;;17.69;49.44
9695;BME280;4690;52.422;13.486;2023-05-02T06:43:17;101425.28;;;17.86;48.70
9695;BME280;4690;52.422;13.486;2023-05-02T06:45:44;101425.25;;;18.08;48.62
9695;BME280;4690;52.422;13.486;2023-05-02T06:48:10;101428.72;;;18.20;47.43
9695;BME280;4690;52.422;13.486;2023-05-02T06:50:36;101431.47;;;18.20;47.62
9695;BME280;4690;52.422;13.486;2023-05-02T06:53:03;101436.69;;;18.44;48.40
9695;BME280;4690;52.422;13.486;2023-05-02T06:55:30;101442.13;;;18.60;46.83
9695;BME280;4690;52.422;13.486;2023-05-02T06:57:56;101447.34;;;18.79;46.71
9695;BME280;4690;52.422;13.486;2023-05-02T07:00:22;101454.66;;;18.90;46.77
9695;BME280;4690;52.422;13.486;2023-05-02T07:02:48;101459.00;;;19.13;46.36
9695;BME280;4690;52.422;13.486;2023-05-02T07:05:15;101478.19;;;19.20;46.28
9695;BME280;4690;52.422;13.486;2023-05-02T07:07:42;101474.50;;;19.46;46.53
9695;BME280;4690;52.422;13.486;2023-05-02T07:10:09;101481.34;;;19.71;46.54
9695;BME280;4690;52.422;13.486;2023-05-02T07:12:35;101484.72;;;19.78;45.76
9695;BME280;4690;52.422;13.486;2023-05-02T07:15:01;101480.34;;;19.98;45.31
9695;BME280;4690;52.422;13.486;2023-05-02T07:17:27;101495.94;;;19.99;45.59
9695;BME280;4690;52.422;13.486;2023-05-02T07:19:53;101493.47;;;20.12;45.03
9695;BME280;4690;52.422;13.486;2023-05-02T07:22:20;101493.47;;;20.12;44.89
9695;BME280;4690;52.422;13.486;2023-05-02T07:24:45;101493.41;;;19.92;44.59
9695;BME280;4690;52.422;13.486;2023-05-02T07:27:12;101504.41;;;19.66;46.13
9695;BME280;4690;52.422;13.486;2023-05-02T07:29:38;101510.06;;;19.44;46.13
9695;BME280;4690;52.422;13.486;2023-05-02T07:32:05;101514.66;;;19.29;46.88
9695;BME280;4690;52.422;13.486;2023-05-02T07:34:31;101510.38;;;19.11;47.39
9695;BME280;4690;52.422;13.486;2023-05-02T07:36:57;101513.16;;;19.11;47.92
9695;BME280;4690;52.422;13.486;2023-05-02T07:39:24;101524.78;;;19.08;48.19
9695;BME280;4690;52.422;13.486;2023-05-02T07:41:53;101526.59;;;18.92;47.46
9695;BME280;4690;52.422;13.486;2023-05-02T07:44:20;101527.34;;;18.82;47.52
9695;BME280;4690;52.422;13.486;2023-05-02T07:46:46;101534.44;;;18.73;48.64
9695;BME280;4690;52.422;13.486;2023-05-02T07:49:12;101537.47;;;18.71;49.23
9695;BME280;4690;52.422;13.486;2023-05-02T07:51:38;101539.25;;;18.55;48.70
9695;BME280;4690;52.422;13.486;2023-05-02T07:54:21;101540.03;;;18.51;49.65
9695;BME280;4690;52.422;13.486;2023-05-02T07:56:47;101544.75;;;18.50;49.56
9695;BME280;4690;52.422;13.486;2023-05-02T07:59:16;101543.34;;;18.48;50.12
9695;BME280;4690;52.422;13.486;2023-05-02T08:01:42;101541.63;;;18.42;50.53
9695;BME280;4690;52.422;13.486;2023-05-02T08:04:08;101547.75;;;18.22;50.15
9695;BME280;4690;52.422;13.486;2023-05-02T08:06:37;101551.44;;;18.05;50.42
9695;BME280;4690;52.422;13.486;2023-05-02T08:09:03;101552.00;;;17.85;51.33
9695;BME280;4690;52.422;13.486;2023-05-02T08:11:28;101556.78;;;17.56;51.38
9695;BME280;4690;52.422;13.486;2023-05-02T08:13:54;101562.59;;;17.55;52.86
9695;BME280;4690;52.422;13.486;2023-05-02T08:16:21;101548.47;;;17.56;53.41
9695;BME280;4690;52.422;13.486;2023-05-02T08:18:47;101561.25;;;17.57;53.64
9695;BME280;4690;52.422;13.486;2023-05-02T08:21:12;101563.75;;;17.59;53.98
9695;BME280;4690;52.422;13.486;2023-05-02T08:23:40;101566.72;;;17.52;53.22
9695;BME280;4690;52.422;13.486;2023-05-02T08:26:07;101578.22;;;17.44;52.54
9695;BME280;4690;52.422;13.486;2023-05-02T08:28:32;101579.66;;;17.30;53.08
9695;BME280;4690;52.422;13.486;2023-05-02T08:30:58;101579.47;;;17.19;54.17
9695;BME280;4690;52.422;13.486;2023-05-02T08:33:24;101583.91;;;17.03;54.13
9695;BME280;4690;52.422;13.486;2023-05-02T08:35:50;101576.34;;;17.16;55.99
9695;BME280;4690;52.422;13.486;2023-05-02T08:38:16;101580.16;;;17.27;55.55
9695;BME280;4690;52.422;13.486;2023-05-02T08:40:42;101585.69;;;17.43;55.59
9695;BME280;4690;52.422;13.486;2023-05-02T08:43:09;101584.91;;;17.65;54.23
9695;BME280;4690;52.422;13.486;2023-05-02T08:45:40;101584.84;;;17.77;54.64
9695;BME280;4690;52.422;13.486;2023-05-02T08:48:12;101586.34;;;17.84;53.22
9695;BME280;4690;52.422;13.486;2023-05-02T08:50:38;101591.94;;;18.06;54.04
9695;BME280;4690;52.422;13.486;2023-05-02T08:53:08;101589.94;;;18.24;52.20
9695;BME280;4690;52.422;13.486;2023-05-02T08:55:37;101596.75;;;18.33;53.05
9695;BME280;4690;52.422;13.486;2023-05-02T08:58:09;101604.03;;;18.39;53.04
9695;BME280;4690;52.422;13.486;2023-05-02T09:00:41;101606.66;;;18.29;51.09
9695;BME280;4690;52.422;13.486;2023-05-02T09:03:32;101613.03;;;18.29;51.65
9695;BME280;4690;52.422;13.486;2023-05-02T09:06:11;101623.75;;;18.43;52.07
9695;BME280;4690;52.422;13.486;2023-05-02T09:08:39;101608.78;;;18.44;51.28
9695;BME280;4690;52.422;13.486;2023-05-02T09:11:08;101629.94;;;18.50;51.48
9695;BME280;4690;52.422;13.486;2023-05-02T09:13:46;101627.63;;;18.64;52.21
9695;BME280;4690;52.422;13.486;2023-05-02T09:16:23;101624.28;;;18.40;51.14
9695;BME280;4690;52.422;13.486;2023-05-02T09:18:57;101634.50;;;18.56;51.30
9695;BME280;4690;52.422;13.486;2023-05-02T09:21:38;101643.50;;;18.68;50.34
9695;BME280;4690;52.422;13.486;2023-05-02T09:24:19;101643.91;;;18.55;50.03
9695;BME280;4690;52.422;13.486;2023-05-02T09:27:03;101642.91;;;18.44;51.04
9695;BME280;4690;52.422;13.486;2023-05-02T09:29:31;101657.19;;;18.31;50.63
9695;BME280;4690;52.422;13.486;2023-05-02T09:32:03;101654.13;;;18.10;51.32
9695;BME280;4690;52.422;13.486;2023-05-02T09:34:29;101650.09;;;18.01;52.00
9695;BME280;4690;52.422;13.486;2023-05-02T09:36:56;101662.28;;;18.00;52.72
9695;BME280;4690;52.422;13.486;2023-05-02T09:39:27;101655.16;;;17.87;52.73
9695;BME280;4690;52.422;13.486;2023-05-02T09:41:54;101660.47;;;17.89;52.53
9695;BME280;4690;52.422;13.486;2023-05-02T09:44:23;101658.72;;;17.83;53.30
9695;BME280;4690;52.422;13.486;2023-05-02T09:46:54;101657.41;;;17.90;52.85
9695;BME280;4690;52.422;13.486;2023-05-02T09:49:40;101657.84;;;17.99;52.84
9695;BME280;4690;52.422;13.486;2023-05-02T09:52:24;101661.53;;;18.05;52.56
9695;BME280;4690;52.422;13.486;2023-05-02T09:54:50;101665.59;;;17.97;52.95
9695;BME280;4690;52.422;13.486;2023-05-02T09:57:17;101666.19;;;17.82;52.93
9695;BME280;4690;52.422;13.486;2023-05-02T09:59:57;101671.09;;;17.63;54.10
9695;BME280;4690;52.422;13.486;2023-05-02T10:02:24;101669.69;;;17.61;54.25
9695;BME280;4690;52.422;13.486;2023-05-02T10:04:55;101676.66;;;17.63;53.60
9695;BME280;4690;52.422;13.486;2023-05-02T10:07:22;101688.16;;;17.72;54.82
9695;BME280;4690;52.422;13.486;2023-05-02T10:09:53;101678.50;;;17.75;54.33
9695;BME280;4690;52.422;13.486;2023-05-02T10:12:23;101686.25;;;17.89;55.13
9695;BME280;4690;52.422;13.486;2023-05-02T10:14:59;101684.22;;;18.02;54.50
9695;BME280;4690;52.422;13.486;2023-05-02T10:17:30;101682.88;;;18.04;53.61
9695;BME280;4690;52.422;13.486;2023-05-02T10:20:06;101691.47;;;18.03;53.11
9695;BME280;4690;52.422;13.486;2023-05-02T10:22:35;101696.94;;;17.81;53.41
9695;BME280;4690;52.422;13.486;2023-05-02T10:25:02;101704.19;;;17.70;53.09
9695;BME280;4690;52.422;13.486;2023-05-02T10:27:29;101698.72;;;17.58;53.66
9695;BME280;4690;52.422;13.486;2023-05-02T10:29:58;101712.41;;;17.48;53.39
9695;BME280;4690;52.422;13.486;2023-05-02T10:32:28;101700.81;;;17.51;54.58
9695;BME280;4690;52.422;13.486;2023-05-02T10:34:56;101710.31;;;17.55;54.91
9695;BME280;4690;52.422;13.486;2023-05-02T10:37:25;101710.06;;;17.57;54.62
9695;BME280;4690;52.422;13.486;2023-05-02T10:39:52;101708.81;;;17.64;54.99
9695;BME280;4690;52.422;13.486;2023-05-02T10:42:19;101703.22;;;17.93;55.70
9695;BME280;4690;52.422;13.486;2023-05-02T10:44:46;101709.91;;;18.31;55.29
9695;BME280;4690;52.422;13.486;2023-05-02T10:47:21;101722.84;;;18.42;52.53
9695;BME280;4690;52.422;13.486;2023-05-02T10:49:56;101718.25;;;18.31;51.86
9695;BME280;4690;52.422;13.486;2023-05-02T10:52:37;101722.22;;;18.01;53.65
9695;BME280;4690;52.422;13.486;2023-05-02T10:55:19;101740.88;;;17.89;53.97
9695;BME280;4690;52.422;13.486;2023-05-02T11:00:29;101757.63;;;17.37;56.21
9695;BME280;4690;52.422;13.486;2023-05-02T11:02:55;101768.88;;;17.30;57.16
9695;BME280;4690;52.422;13.486;2023-05-02T11:05:22;101760.47;;;17.25;56.80
9695;BME280;4690;52.422;13.486;2023-05-02T11:07:49;101768.75;;;17.25;57.30
9695;BME280;4690;52.422;13.486;2023-05-02T11:10:35;101764.81;;;17.50;57.82
9695;BME280;4690;52.422;13.486;2023-05-02T11:13:00;101765.50;;;17.85;57.07
9695;BME280;4690;52.422;13.486;2023-05-02T11:18:09;101776.94;;;18.23;54.14
9695;BME280;4690;52.422;13.486;2023-05-02T11:20:43;101781.16;;;18.08;52.98
9695;BME280;4690;52.422;13.486;2023-05-02T11:25:43;101804.41;;;17.62;54.82
9695;BME280;4690;52.422;13.486;2023-05-02T11:28:40;101806.06;;;17.34;55.20
9695;BME280;4690;52.422;13.486;2023-05-02T11:34:01;101824.34;;;16.95;55.29
9695;BME280;4690;52.422;13.486;2023-05-02T11:36:33;101814.75;;;16.86;55.74
9695;BME280;4690;52.422;13.486;2023-05-02T11:39:00;101832.66;;;16.71;56.12
9695;BME280;4690;52.422;13.486;2023-05-02T11:41:41;101837.94;;;16.49;55.92
9695;BME280;4690;52.422;13.486;2023-05-02T11:44:07;101835.16;;;16.49;56.69
9695;BME280;4690;52.422;13.486;2023-05-02T11:46:37;101836.53;;;16.58;56.59
9695;BME280;4690;52.422;13.486;2023-05-02T11:49:03;101835.06;;;16.68;54.88
9695;BME280;4690;52.422;13.486;2023-05-02T11:51:30;101840.47;;;16.74;54.63
9695;BME280;4690;52.422;13.486;2023-05-02T11:53:56;101844.81;;;16.70;53.40
9695;BME280;4690;52.422;13.486;2023-05-02T11:56:25;101841.13;;;16.76;52.78
9695;BME280;4690;52.422;13.486;2023-05-02T11:58:59;101839.78;;;16.91;52.46
9695;BME280;4690;52.422;13.486;2023-05-02T12:01:26;101839.16;;;17.00;51.88
9695;BME280;4690;52.422;13.486;2023-05-02T12:04:05;101857.31;;;17.20;51.39
9695;BME280;4690;52.422;13.486;2023-05-02T12:06:34;101844.03;;;17.34;50.03
9695;BME280;4690;52.422;13.486;2023-05-02T12:09:13;101845.34;;;17.43;50.25
9695;BME280;4690;52.422;13.486;2023-05-02T12:11:40;101855.22;;;17.39;49.86
9695;BME280;4690;52.422;13.486;2023-05-02T12:14:06;101859.09;;;17.38;48.67
9695;BME280;4690;52.422;13.486;2023-05-02T12:16:32;101874.38;;;17.29;48.31
9695;BME280;4690;52.422;13.486;2023-05-02T12:18:59;101861.88;;;17.38;49.01
9695;BME280;4690;52.422;13.486;2023-05-02T12:21:28;101875.72;;;17.38;48.26
9695;BME280;4690;52.422;13.486;2023-05-02T12:24:03;101873.31;;;17.30;48.46
9695;BME280;4690;52.422;13.486;2023-05-02T12:26:29;101875.03;;;17.19;48.65
9695;BME280;4690;52.422;13.486;2023-05-02T12:28:57;101875.66;;;17.09;47.97
9695;BME280;4690;52.422;13.486;2023-05-02T12:31:24;101881.09;;;16.92;47.92
9695;BME280;4690;52.422;13.486;2023-05-02T12:33:52;101878.41;;;16.97;47.65
9695;BME280;4690;52.422;13.486;2023-05-02T12:36:22;101884.75;;;16.74;48.07
9695;BME280;4690;52.422;13.486;2023-05-02T12:38:56;101885.47;;;16.58;48.12
9695;BME280;4690;52.422;13.486;2023-05-02T12:41:38;101890.31;;;16.74;49.16
9695;BME280;4690;52.422;13.486;2023-05-02T12:44:08;101890.94;;;16.76;47.98
9695;BME280;4690;52.422;13.486;2023-05-02T12:46:33;101882.16;;;16.91;48.25
9695;BME280;4690;52.422;13.486;2023-05-02T12:49:05;101876.88;;;16.90;47.60
9695;BME280;4690;52.422;13.486;2023-05-02T12:51:32;101885.28;;;17.07;49.39
9695;BME280;4690;52.422;13.486;2023-05-02T12:53:59;101891.88;;;17.29;49.18
9695;BME280;4690;52.422;13.486;2023-05-02T12:56:25;101889.69;;;17.43;47.30
9695;BME280;4690;52.422;13.486;2023-05-02T12:58:57;101886.81;;;17.38;46.14
9695;BME280;4690;52.422;13.486;2023-05-02T13:01:29;101895.59;;;17.35;45.81
9695;BME280;4690;52.422;13.486;2023-05-02T13:03:56;101901.34;;;17.45;46.79
9695;BME280;4690;52.422;13.486;2023-05-02T13:06:21;101898.06;;;17.60;46.23
9695;BME280;4690;52.422;13.486;2023-05-02T13:08:47;101905.13;;;17.67;45.96
9695;BME280;4690;52.422;13.486;2023-05-02T13:11:13;101903.47;;;17.66;46.35
9695;BME280;4690;52.422;13.486;2023-05-02T13:13:39;101923.56;;;17.74;44.62
9695;BME280;4690;52.422;13.486;2023-05-02T13:16:05;101906.34;;;17.72;44.98
9695;BME280;4690;52.422;13.486;2023-05-02T13:18:31;101927.34;;;17.56;44.31
9695;BME280;4690;52.422;13.486;2023-05-02T13:20:57;101919.03;;;17.56;44.91
9695;BME280;4690;52.422;13.486;2023-05-02T13:23:22;101929.03;;;17.68;45.15
9695;BME280;4690;52.422;13.486;2023-05-02T13:25:48;101930.63;;;17.93;45.38
9695;BME280;4690;52.422;13.486;2023-05-02T13:28:14;101925.47;;;17.97;44.02
9695;BME280;4690;52.422;13.486;2023-05-02T13:30:40;101915.66;;;18.06;43.90
9695;BME280;4690;52.422;13.486;2023-05-02T13:33:05;101922.53;;;18.03;43.03
9695;BME280;4690;52.422;13.486;2023-05-02T13:35:31;101918.25;;;18.12;43.48
9695;BME280;4690;52.422;13.486;2023-05-02T13:37:57;101933.13;;;18.06;43.84
9695;BME280;4690;52.422;13.486;2023-05-02T13:40:23;101926.03;;;17.99;43.14
9695;BME280;4690;52.422;13.486;2023-05-02T13:42:48;101920.59;;;18.04;41.98